Time;durP1;ratioP1;P1;durP2;ratioP2;P2;SDS_P1;SDS_P2;PMS_P1;PMS_P2;Temp;Humidity;BMP_temperature;BMP_pressure;BME280_temperature;BME280_humidity;BME280_pressure;Samples;Min_cycle;Max_cycle;Signal;HPM_P1;HPM_P2
2022/12/31 00:00:33;;;;;;;62.30;31.60;;;;;;;9.49;100.00;101550.78;4993788;28;20188;-73
2022/12/31 00:02:59;;;;;;;56.25;30.75;;;;;;;9.48;100.00;101557.78;4994112;28;20116;-73
2022/12/31 00:05:24;;;;;;;46.80;29.33;;;;;;;9.52;100.00;101564.41;4995991;28;20470;-73
2022/12/31 00:07:50;;;;;;;50.55;28.45;;;;;;;9.52;100.00;101559.22;4994700;28;20084;-73
2022/12/31 00:10:15;;;;;;;43.50;25.00;;;;;;;9.50;100.00;101555.88;4994105;28;20034;-73
2022/12/31 00:12:40;;;;;;;43.35;26.95;;;;;;;9.49;100.00;101564.63;4993705;28;20418;-74
2022/12/31 00:15:06;;;;;;;57.38;30.05;;;;;;;9.47;100.00;101560.47;4995049;28;20884;-73
2022/12/31 00:17:32;;;;;;;51.35;27.52;;;;;;;9.48;100.00;101562.13;5009296;28;20029;-74
2022/12/31 00:19:57;;;;;;;61.88;29.83;;;;;;;9.49;100.00;101572.44;4997532;28;20037;-73
2022/12/31 00:22:23;;;;;;;87.18;32.92;;;;;;;9.49;100.00;101577.63;4995665;28;20474;-73
2022/12/31 00:24:48;;;;;;;45.50;24.13;;;;;;;9.49;100.00;101580.25;4995337;28;20614;-74
2022/12/31 00:27:14;;;;;;;47.60;25.33;;;;;;;9.50;100.00;101589.72;4994799;28;20458;-74
2022/12/31 00:29:39;;;;;;;48.33;27.63;;;;;;;9.49;100.00;101589.81;4995101;28;20032;-74
2022/12/31 00:32:04;;;;;;;51.33;29.08;;;;;;;9.46;100.00;101593.47;5006587;28;20087;-74
2022/12/31 00:34:30;;;;;;;48.13;27.35;;;;;;;9.45;100.00;101591.00;5000955;28;20481;-74
2022/12/31 00:36:55;;;;;;;46.22;25.88;;;;;;;9.48;100.00;101593.34;5012501;28;20051;-74
2022/12/31 00:39:21;;;;;;;69.10;30.45;;;;;;;9.50;100.00;101601.88;5015365;28;20049;-74
2022/12/31 00:41:46;;;;;;;50.45;28.33;;;;;;;9.49;100.00;101593.25;5005339;28;20444;-74
2022/12/31 00:44:12;;;;;;;54.45;26.38;;;;;;;9.50;100.00;101602.72;4995043;28;20382;-74
2022/12/31 00:46:38;;;;;;;63.03;29.45;;;;;;;9.51;100.00;101613.94;4997796;28;20108;-74
2022/12/31 00:49:03;;;;;;;70.03;28.05;;;;;;;9.49;100.00;101621.88;5014491;28;20042;-74
2022/12/31 00:51:29;;;;;;;50.75;25.13;;;;;;;9.49;100.00;101621.88;5009278;28;20038;-74
2022/12/31 00:53:56;;;;;;;58.80;26.08;;;;;;;9.49;100.00;101623.63;5008837;28;20109;-74
2022/12/31 00:56:25;;;;;;;47.75;26.40;;;;;;;9.46;100.00;101631.66;5016683;28;20386;-73
2022/12/31 00:58:50;;;;;;;48.13;26.58;;;;;;;9.46;100.00;101636.84;5008053;28;20045;-74
2022/12/31 01:01:18;;;;;;;57.30;27.73;;;;;;;9.46;100.00;101632.50;5009324;28;20038;-73
2022/12/31 01:03:45;;;;;;;60.22;27.10;;;;;;;9.50;100.00;101638.31;5047570;28;20531;-74
2022/12/31 01:06:11;;;;;;;67.63;28.75;;;;;;;9.51;100.00;101645.16;4997395;28;20137;-74
2022/12/31 01:08:37;;;;;;;57.28;27.20;;;;;;;9.52;100.00;101639.84;4993664;28;20030;-74
2022/12/31 01:11:18;;;;;;;53.42;27.67;;;;;;;9.53;100.00;101648.50;4994117;28;20117;-74
2022/12/31 01:13:51;;;;;;;65.95;30.80;;;;;;;9.51;100.00;101651.22;4996327;28;20029;-74
2022/12/31 01:16:19;;;;;;;48.45;25.05;;;;;;;9.52;100.00;101652.88;4995092;28;20033;-74
2022/12/31 01:18:44;;;;;;;66.18;29.00;;;;;;;9.55;100.00;101651.81;4995591;28;20516;-74
2022/12/31 01:21:11;;;;;;;66.78;32.53;;;;;;;9.57;100.00;101657.75;4995254;28;20037;-74
2022/12/31 01:23:37;;;;;;;64.28;30.52;;;;;;;9.58;100.00;101662.84;4993061;28;20164;-73
2022/12/31 01:26:06;;;;;;;62.15;29.48;;;;;;;9.58;100.00;101662.84;5008635;28;20034;-73
2022/12/31 01:28:32;;;;;;;65.65;31.98;;;;;;;9.60;100.00;101662.72;5017866;28;20446;-73
2022/12/31 01:30:58;;;;;;;70.13;30.45;;;;;;;9.62;100.00;101669.50;5010977;28;20021;-74
2022/12/31 01:33:24;;;;;;;117.82;33.10;;;;;;;9.63;100.00;101673.75;5002739;28;20040;-73
2022/12/31 01:35:49;;;;;;;107.30;32.25;;;;;;;9.65;100.00;101677.09;5009284;28;20062;-74
2022/12/31 01:38:15;;;;;;;151.65;35.45;;;;;;;9.69;100.00;101687.28;5012975;28;20397;-74
2022/12/31 01:40:40;;;;;;;131.75;34.92;;;;;;;9.70;100.00;101681.97;5011563;28;20056;-73
2022/12/31 01:43:15;;;;;;;158.68;38.25;;;;;;;9.70;100.00;101676.75;5018614;28;20034;-74
2022/12/31 01:45:43;;;;;;;205.88;36.85;;;;;;;9.73;100.00;101688.72;5006937;28;20389;-74
2022/12/31 01:48:14;;;;;;;175.63;33.67;;;;;;;9.73;100.00;101691.31;5013409;28;20018;-74
2022/12/31 01:50:40;;;;;;;223.23;38.97;;;;;;;9.74;100.00;101687.78;5013660;28;20033;-74
2022/12/31 01:53:08;;;;;;;152.13;37.42;;;;;;;9.74;100.00;101693.81;5009370;28;20032;-74
2022/12/31 01:56:05;;;;;;;132.77;38.35;;;;;;;9.73;100.00;101681.75;5006523;28;20034;-74
2022/12/31 01:58:37;;;;;;;;;;;;;;;9.65;100.00;101684.88;4987745;28;20307;-74
2022/12/31 02:01:05;;;;;;;164.98;40.60;;;;;;;9.69;100.00;101687.28;4992251;28;19912;-74
2022/12/31 02:03:31;;;;;;;203.98;40.15;;;;;;;9.70;100.00;101692.38;5004041;28;20120;-74
2022/12/31 02:06:34;;;;;;;162.55;41.67;;;;;;;9.71;100.00;101696.63;5001148;28;20109;-74
2022/12/31 02:09:00;;;;;;;141.02;40.20;;;;;;;9.70;100.00;101700.19;4990035;28;20153;-74
2022/12/31 02:11:36;;;;;;;187.18;40.97;;;;;;;9.72;100.00;101705.28;4985369;28;20038;-74
2022/12/31 02:14:15;;;;;;;196.57;42.78;;;;;;;9.70;100.00;101701.94;4992122;28;20041;-74
2022/12/31 02:16:52;;;;;;;167.48;41.60;;;;;;;9.69;100.00;101703.72;4992501;28;20033;-74
2022/12/31 02:19:42;;;;;;;165.40;40.47;;;;;;;9.70;100.00;101707.16;4995451;28;20034;-74
2022/12/31 02:22:40;;;;;;;141.85;39.30;;;;;;;9.68;100.00;101706.44;5008463;28;20063;-74
2022/12/31 02:25:14;;;;;;;199.45;42.00;;;;;;;9.70;100.00;101709.75;4999814;28;20044;-74
2022/12/31 02:28:01;;;;;;;224.57;43.97;;;;;;;9.70;100.00;101707.16;4988896;28;20061;-74
2022/12/31 02:30:31;;;;;;;213.35;41.45;;;;;;;9.71;100.00;101708.81;4987713;28;20034;-74
2022/12/31 02:32:59;;;;;;;177.27;42.45;;;;;;;9.66;100.00;101709.16;4993871;28;20018;-74
2022/12/31 02:35:50;;;;;;;208.77;42.20;;;;;;;9.67;100.00;101705.59;4994611;28;20465;-74
2022/12/31 02:38:23;;;;;;;110.63;36.00;;;;;;;9.67;100.00;101707.38;4989069;28;20045;-74
2022/12/31 02:40:49;;;;;;;191.10;41.33;;;;;;;9.65;100.00;101697.06;4991659;28;20025;-74
2022/12/31 02:43:15;;;;;;;232.25;37.63;;;;;;;9.65;100.00;101700.50;4992270;28;20096;-74
2022/12/31 02:45:44;;;;;;;273.10;46.38;;;;;;;9.66;100.00;101703.94;4988689;28;20030;-74
2022/12/31 02:48:15;;;;;;;145.55;38.60;;;;;;;9.62;100.00;101695.50;4992468;28;20018;-74
2022/12/31 02:51:01;;;;;;;209.57;40.97;;;;;;;9.59;100.00;101690.53;5020092;28;20037;-74
2022/12/31 02:53:33;;;;;;;110.13;36.08;;;;;;;9.60;100.00;101691.34;5012007;28;20053;-74
2022/12/31 02:56:28;;;;;;;120.40;38.35;;;;;;;9.57;100.00;101692.41;5011166;28;20104;-73
2022/12/31 03:02:12;;;;;;;156.50;40.00;;;;;;;9.57;100.00;101697.59;5005053;28;20032;-74
2022/12/31 03:04:40;;;;;;;114.13;35.72;;;;;;;9.56;100.00;101685.53;5010511;28;20034;-74
2022/12/31 03:07:09;;;;;;;167.45;38.90;;;;;;;9.56;100.00;101689.91;5015317;28;20052;-74
2022/12/31 03:09:35;;;;;;;116.72;34.88;;;;;;;9.55;100.00;101690.84;5010694;28;20127;-74
2022/12/31 03:14:45;;;;;;;170.77;40.70;;;;;;;9.56;100.00;101690.75;5009563;28;20045;-74
2022/12/31 03:17:11;;;;;;;116.32;36.08;;;;;;;9.56;100.00;101693.34;5011085;28;20034;-74
2022/12/31 03:22:26;;;;;;;216.00;42.30;;;;;;;9.56;100.00;101685.53;5025224;28;20118;-74
2022/12/31 03:27:50;;;;;;;145.18;38.65;;;;;;;9.53;100.00;101690.13;5003434;28;20124;-73
2022/12/31 03:30:17;;;;;;;153.98;39.53;;;;;;;9.51;100.00;101685.03;5010562;28;20125;-74
2022/12/31 03:32:44;;;;;;;117.32;39.95;;;;;;;9.53;100.00;101684.91;5005707;28;20549;-73
2022/12/31 03:35:11;;;;;;;179.25;37.78;;;;;;;9.55;100.00;101699.47;5012177;28;20030;-74
2022/12/31 03:37:38;;;;;;;170.18;39.92;;;;;;;9.56;100.00;101702.91;5010831;28;20034;-74
2022/12/31 03:40:06;;;;;;;193.07;41.90;;;;;;;9.54;100.00;101703.03;5021571;28;20084;-74
2022/12/31 03:42:31;;;;;;;109.43;37.55;;;;;;;9.53;100.00;101706.56;5009805;28;20041;-74
2022/12/31 03:44:56;;;;;;;104.45;37.75;;;;;;;9.53;100.00;101701.38;5010221;28;20441;-74
2022/12/31 03:47:22;;;;;;;176.98;40.03;;;;;;;9.53;100.00;101706.56;4998557;28;20038;-74
2022/12/31 03:49:47;;;;;;;116.78;39.05;;;;;;;9.51;100.00;101705.84;4994027;28;20058;-74
2022/12/31 03:52:13;;;;;;;135.30;39.72;;;;;;;9.48;100.00;101706.06;4989013;28;20176;-74
2022/12/31 03:54:38;;;;;;;135.45;37.30;;;;;;;9.48;100.00;101708.66;4989276;28;20401;-74
2022/12/31 03:57:04;;;;;;;150.65;38.83;;;;;;;9.47;100.00;101716.56;4990218;28;20054;-74
2022/12/31 03:59:29;;;;;;;287.92;47.08;;;;;;;9.45;100.00;101711.47;4988388;28;20603;-74
2022/12/31 04:01:54;;;;;;;291.75;48.72;;;;;;;9.43;100.00;101707.34;4988448;28;20045;-74
2022/12/31 04:04:20;;;;;;;213.88;44.17;;;;;;;9.42;100.00;101716.91;4992698;28;20021;-74
2022/12/31 04:06:45;;;;;;;226.80;44.53;;;;;;;9.43;100.00;101715.97;4989486;28;20107;-74
2022/12/31 04:09:11;;;;;;;157.52;39.13;;;;;;;9.42;100.00;101722.13;4989129;28;20025;-74
2022/12/31 04:11:36;;;;;;;117.15;35.75;;;;;;;9.42;100.00;101729.91;4988998;28;20030;-74
2022/12/31 04:14:01;;;;;;;149.50;39.00;;;;;;;9.44;100.00;101737.63;4990598;28;20061;-74
2022/12/31 04:16:27;;;;;;;196.15;43.35;;;;;;;9.44;100.00;101735.84;4988268;28;20057;-74
2022/12/31 04:18:52;;;;;;;208.88;46.13;;;;;;;9.43;100.00;101738.56;5007077;28;20033;-74
2022/12/31 04:21:18;;;;;;;299.83;50.67;;;;;;;9.42;100.00;101748.13;4992251;28;21318;-74
2022/12/31 04:23:43;;;;;;;187.85;45.33;;;;;;;9.43;100.00;101746.34;4990329;28;20053;-74
2022/12/31 04:26:08;;;;;;;265.65;51.38;;;;;;;9.42;100.00;101755.09;4987998;28;20065;-74
2022/12/31 04:28:34;;;;;;;153.65;42.47;;;;;;;9.40;100.00;101757.81;4987912;28;20030;-74
2022/12/31 04:30:59;;;;;;;188.45;47.72;;;;;;;9.41;100.00;101759.47;4989618;28;20526;-74
2022/12/31 04:33:25;;;;;;;134.70;41.50;;;;;;;9.41;100.00;101769.03;4987191;28;20038;-74
2022/12/31 04:35:50;;;;;;;113.57;43.53;;;;;;;9.41;100.00;101775.06;5006746;28;20728;-74
2022/12/31 04:38:16;;;;;;;133.93;43.63;;;;;;;9.38;100.00;101772.69;5010272;28;20117;-74
2022/12/31 04:43:27;;;;;;;;;;;;;;;9.33;100.00;101777.38;5011469;28;20052;-74
2022/12/31 04:45:53;;;;;;;123.60;38.17;;;;;;;9.35;100.00;101775.50;5010770;28;19917;-74
2022/12/31 04:48:18;;;;;;;131.38;38.63;;;;;;;9.38;100.00;101779.66;5010744;28;20080;-74
2022/12/31 04:50:45;;;;;;;231.75;45.25;;;;;;;9.38;100.00;101785.69;5008047;28;20061;-74
2022/12/31 04:53:11;;;;;;;172.05;44.13;;;;;;;9.40;100.00;101783.00;5010191;28;20036;-74
2022/12/31 04:55:36;;;;;;;249.60;44.80;;;;;;;9.41;100.00;101793.28;4996111;28;20045;-74
2022/12/31 04:58:02;;;;;;;118.70;40.72;;;;;;;9.40;100.00;101794.22;4989044;28;20046;-74
2022/12/31 05:00:27;;;;;;;205.13;41.22;;;;;;;9.40;100.00;101803.78;4986303;28;20057;-74
2022/12/31 05:02:52;;;;;;;160.05;40.47;;;;;;;9.40;100.00;101809.00;4987741;28;20026;-74
2022/12/31 05:05:18;;;;;;;322.50;48.85;;;;;;;9.41;100.00;101808.06;4998214;28;20042;-74
2022/12/31 05:07:43;;;;;;;207.60;41.53;;;;;;;9.40;100.00;101804.63;5016531;28;20139;-74
2022/12/31 05:10:09;;;;;;;146.88;39.65;;;;;;;9.39;100.00;101808.16;5012421;28;20034;-74
2022/12/31 05:12:34;;;;;;;165.02;39.70;;;;;;;9.40;100.00;101803.78;5012363;28;20045;-74
2022/12/31 05:14:59;;;;;;;239.38;40.85;;;;;;;9.40;100.00;101803.78;5009699;28;20022;-74
2022/12/31 05:17:25;;;;;;;228.07;42.60;;;;;;;9.40;100.00;101812.44;5010898;28;20041;-74
2022/12/31 05:19:50;;;;;;;205.55;39.33;;;;;;;9.39;100.00;101808.16;5008295;28;20405;-74
2022/12/31 05:22:28;;;;;;;266.33;42.70;;;;;;;9.42;100.00;101814.94;5015353;28;20490;-74
2022/12/31 05:24:53;;;;;;;136.95;37.28;;;;;;;9.42;100.00;101826.16;5004250;28;20052;-74
2022/12/31 05:27:19;;;;;;;264.30;42.08;;;;;;;9.42;100.00;101807.97;5012298;28;20053;-74
2022/12/31 05:29:44;;;;;;;156.70;39.10;;;;;;;9.38;100.00;101809.09;5009904;28;20040;-74
2022/12/31 05:32:10;;;;;;;190.05;35.65;;;;;;;9.36;100.00;101812.75;4996390;28;20116;-74
2022/12/31 05:34:35;;;;;;;151.02;37.35;;;;;;;9.35;100.00;101809.31;4990965;28;20033;-74
2022/12/31 05:37:01;;;;;;;151.00;33.97;;;;;;;9.35;100.00;101813.69;4995941;28;20053;-74
2022/12/31 05:39:26;;;;;;;194.32;36.22;;;;;;;9.30;100.00;101817.41;4991475;28;20516;-74
2022/12/31 05:41:51;;;;;;;183.10;36.40;;;;;;;9.27;100.00;101822.81;4992814;28;20030;-74
2022/12/31 05:44:17;;;;;;;183.77;36.70;;;;;;;9.25;100.00;101822.09;4989631;28;20039;-74
2022/12/31 05:46:42;;;;;;;233.98;40.15;;;;;;;9.24;100.00;101832.59;4990119;28;20038;-74
2022/12/31 05:49:08;;;;;;;219.20;41.00;;;;;;;9.21;100.00;101827.59;4991665;28;20026;-75
2022/12/31 05:51:33;;;;;;;277.17;37.90;;;;;;;9.19;100.00;101829.47;5000706;28;20037;-74
2022/12/31 05:53:59;;;;;;;138.48;33.17;;;;;;;9.13;100.00;101838.50;5003778;28;21066;-75
2022/12/31 05:56:24;;;;;;;202.82;38.00;;;;;;;9.11;100.00;101834.34;4993351;28;20049;-74
2022/12/31 05:58:49;;;;;;;143.52;32.80;;;;;;;9.13;100.00;101843.72;5017949;28;20044;-74
2022/12/31 06:01:15;;;;;;;191.02;36.67;;;;;;;9.12;100.00;101847.25;5000649;28;20049;-74
2022/12/31 06:03:40;;;;;;;170.82;35.78;;;;;;;9.13;100.00;101855.88;5004555;28;20034;-74
2022/12/31 06:06:06;;;;;;;248.50;42.80;;;;;;;9.14;100.00;101858.38;4998372;28;20037;-74
2022/12/31 06:08:32;;;;;;;352.17;55.55;;;;;;;9.15;100.00;101859.22;4991705;28;20856;-74
2022/12/31 06:10:57;;;;;;;178.38;48.92;;;;;;;9.14;100.00;101862.75;4988231;28;20124;-74
2022/12/31 06:13:23;;;;;;;202.38;49.58;;;;;;;9.14;100.00;101865.34;4992275;28;20028;-74
2022/12/31 06:15:48;;;;;;;136.80;45.28;;;;;;;9.15;100.00;101872.22;4990532;28;20040;-74
2022/12/31 06:18:14;;;;;;;182.73;47.03;;;;;;;9.16;100.00;101874.72;4988297;28;20044;-74
2022/12/31 06:20:39;;;;;;;247.48;48.22;;;;;;;9.19;100.00;101881.47;4991734;28;20204;-74
2022/12/31 06:23:05;;;;;;;200.65;45.05;;;;;;;9.20;100.00;101883.16;4995845;28;20038;-74
2022/12/31 06:25:30;;;;;;;192.18;47.00;;;;;;;9.21;100.00;101887.41;4991765;28;20179;-74
2022/12/31 06:27:56;;;;;;;164.82;42.00;;;;;;;9.15;100.00;101893.84;5006078;28;20025;-74
2022/12/31 06:30:21;;;;;;;146.32;42.17;;;;;;;9.18;100.00;101887.63;5013216;28;20213;-75
2022/12/31 06:32:47;;;;;;;158.52;42.25;;;;;;;9.21;100.00;101890.00;5011283;28;20034;-74
2022/12/31 06:35:13;;;;;;;172.73;42.92;;;;;;;9.23;100.00;101899.38;5010980;28;20338;-74
2022/12/31 06:37:38;;;;;;;147.45;41.00;;;;;;;9.24;100.00;101914.06;5013642;28;20054;-74
2022/12/31 06:40:04;;;;;;;141.05;39.67;;;;;;;9.26;100.00;101921.75;5013453;28;20496;-74
2022/12/31 06:42:30;;;;;;;168.30;42.47;;;;;;;9.27;100.00;101918.22;5016278;28;20119;-74
2022/12/31 06:44:57;;;;;;;207.82;45.17;;;;;;;9.28;100.00;101917.28;5017694;28;20572;-74
2022/12/31 06:47:22;;;;;;;139.32;41.45;;;;;;;9.27;100.00;101910.41;5020514;28;20223;-74
2022/12/31 06:49:48;;;;;;;128.60;38.83;;;;;;;9.28;100.00;101914.69;5009079;28;20109;-74
2022/12/31 06:52:13;;;;;;;136.15;41.35;;;;;;;9.30;100.00;101912.81;5009622;28;20469;-76
2022/12/31 06:54:40;;;;;;;138.68;38.80;;;;;;;9.32;100.00;101927.38;5010715;28;20033;-74
2022/12/31 06:57:07;;;;;;;123.93;39.60;;;;;;;9.33;100.00;101941.22;5015370;28;20049;-74
2022/12/31 06:59:33;;;;;;;171.65;41.53;;;;;;;9.34;100.00;101948.09;5016224;28;20038;-75
2022/12/31 07:02:04;;;;;;;189.30;42.80;;;;;;;9.34;100.00;101950.69;5005573;28;20366;-74
2022/12/31 07:04:44;;;;;;;102.20;36.53;;;;;;;9.33;100.00;101959.44;5017925;28;20040;-74
2022/12/31 07:07:20;;;;;;;140.35;37.05;;;;;;;9.34;100.00;101961.09;5015048;28;20391;-75
2022/12/31 07:09:53;;;;;;;105.65;35.00;;;;;;;9.34;100.00;101966.31;5013158;28;20026;-74
2022/12/31 07:12:28;;;;;;;104.45;34.22;;;;;;;9.35;100.00;101972.34;5011849;28;20467;-75
2022/12/31 07:15:00;;;;;;;119.35;37.35;;;;;;;9.35;100.00;101975.78;5009563;28;20018;-76
2022/12/31 07:17:40;;;;;;;98.28;33.13;;;;;;;9.34;100.00;101976.72;5010490;28;20041;-75
2022/12/31 07:20:11;;;;;;;97.38;34.03;;;;;;;9.35;100.00;101980.16;5016040;28;20469;-75
2022/12/31 07:22:37;;;;;;;106.82;35.95;;;;;;;9.36;100.00;101979.22;5013584;28;20061;-74
2022/12/31 07:25:03;;;;;;;83.05;32.28;;;;;;;9.37;100.00;101997.31;5014412;28;20060;-75
2022/12/31 07:27:40;;;;;;;80.57;32.17;;;;;;;9.36;100.00;101993.06;5013222;28;20049;-75
2022/12/31 07:30:20;;;;;;;82.18;34.55;;;;;;;9.34;100.00;101992.31;5011974;28;20088;-75
2022/12/31 07:33:05;;;;;;;87.72;35.88;;;;;;;9.35;100.00;101993.97;5008797;28;20030;-75
2022/12/31 07:35:46;;;;;;;88.82;36.25;;;;;;;9.37;100.00;101999.94;5008713;28;20034;-75
2022/12/31 07:38:16;;;;;;;90.65;34.15;;;;;;;9.37;100.00;102002.53;5009572;28;20030;-76
2022/12/31 07:40:51;;;;;;;86.82;36.45;;;;;;;9.39;100.00;102008.47;5004758;28;20077;-75
2022/12/31 07:43:58;;;;;;;96.15;36.22;;;;;;;9.40;100.00;102012.72;5010527;28;20038;-75
2022/12/31 07:46:32;;;;;;;88.35;37.20;;;;;;;9.41;100.00;102011.81;4968182;28;20049;-75
2022/12/31 07:48:58;;;;;;;97.53;40.92;;;;;;;9.41;100.00;102024.81;4971785;28;20038;-75
2022/12/31 07:51:24;;;;;;;90.03;39.15;;;;;;;9.42;100.00;102031.69;4969622;28;20605;-75
2022/12/31 07:53:49;;;;;;;98.07;40.10;;;;;;;9.42;100.00;102031.69;4970243;28;20127;-75
2022/12/31 07:56:15;;;;;;;100.68;41.40;;;;;;;9.41;100.00;102036.97;4975697;28;20038;-75
2022/12/31 07:58:59;;;;;;;96.22;41.15;;;;;;;9.41;100.00;102039.59;4964225;28;20054;-76
2022/12/31 08:01:54;;;;;;;113.55;43.58;;;;;;;9.42;100.00;102036.06;4963264;28;20065;-75
2022/12/31 08:04:47;;;;;;;104.25;36.78;;;;;;;9.42;100.00;102049.06;4962269;28;20462;-75
2022/12/31 08:07:31;;;;;;;109.13;42.85;;;;;;;9.45;100.00;102044.47;4967564;28;20487;-75
2022/12/31 08:10:14;;;;;;;101.30;39.38;;;;;;;9.44;100.00;102055.00;4964614;28;20483;-75
2022/12/31 08:12:40;;;;;;;114.53;41.13;;;;;;;9.44;100.00;102061.03;4969316;28;20023;-75
2022/12/31 08:15:26;;;;;;;99.38;38.40;;;;;;;9.44;100.00;102061.03;4971394;28;20035;-74
2022/12/31 08:17:52;;;;;;;101.38;40.75;;;;;;;9.42;100.00;102062.91;4968350;28;20031;-74
2022/12/31 08:20:17;;;;;;;95.38;40.05;;;;;;;9.39;100.00;102063.09;4990749;28;20488;-74
2022/12/31 08:22:45;;;;;;;93.03;39.40;;;;;;;9.40;100.00;102064.75;5019064;28;20342;-73
2022/12/31 08:25:32;;;;;;;85.95;39.42;;;;;;;9.38;100.00;102064.03;5014478;28;20030;-73
2022/12/31 08:28:07;;;;;;;94.53;38.85;;;;;;;9.41;100.00;102061.22;5004694;28;20030;-74
2022/12/31 08:31:04;;;;;;;86.30;38.95;;;;;;;9.43;100.00;102063.72;5009071;28;20053;-73
2022/12/31 08:34:06;;;;;;;88.53;39.83;;;;;;;9.43;100.00;102069.78;5012746;28;20029;-73
2022/12/31 08:36:59;;;;;;;98.72;43.17;;;;;;;9.46;100.00;102066.09;5008987;28;20118;-75
2022/12/31 08:39:39;;;;;;;93.50;40.10;;;;;;;9.48;100.00;102065.06;5012053;28;20120;-73
2022/12/31 08:42:18;;;;;;;95.28;40.30;;;;;;;9.54;100.00;102067.28;5013266;28;20033;-73
2022/12/31 08:44:48;;;;;;;95.10;40.03;;;;;;;9.56;100.00;102062.81;5002082;28;20191;-73
2022/12/31 08:47:30;;;;;;;88.03;40.70;;;;;;;9.57;100.00;102064.50;5013748;28;20438;-73
2022/12/31 08:49:56;;;;;;;90.32;43.22;;;;;;;9.60;100.00;102053.06;5004462;28;20064;-73
2022/12/31 08:52:25;;;;;;;100.80;46.13;;;;;;;9.65;100.00;102046.63;5015560;28;20041;-73
2022/12/31 08:54:51;;;;;;;98.80;44.42;;;;;;;9.75;100.00;102048.63;5010232;28;20034;-73
2022/12/31 08:57:42;;;;;;;99.20;44.08;;;;;;;9.72;100.00;102049.66;5012535;28;20261;-73
2022/12/31 09:00:17;;;;;;;95.47;42.97;;;;;;;9.74;100.00;102047.78;5007696;28;20061;-73
2022/12/31 09:02:55;;;;;;;110.77;49.83;;;;;;;9.81;100.00;102058.63;5018464;28;20065;-73
2022/12/31 09:05:36;;;;;;;91.43;43.83;;;;;;;9.85;100.00;102060.09;5008998;28;20049;-74
2022/12/31 09:08:02;;;;;;;87.65;42.22;;;;;;;9.80;100.00;102064.78;5012534;28;20025;-74
2022/12/31 09:10:46;;;;;;;87.68;42.17;;;;;;;9.83;100.00;102059.38;5012858;28;20473;-73
2022/12/31 09:13:31;;;;;;;98.18;42.95;;;;;;;9.93;100.00;102063.84;5009484;28;20400;-73
2022/12/31 09:16:38;;;;;;;95.63;43.28;;;;;;;9.96;100.00;102074.06;5004278;28;20041;-73
2022/12/31 09:19:04;;;;;;;86.93;43.53;;;;;;;9.97;100.00;102080.94;4985156;28;20046;-73
2022/12/31 09:21:31;;;;;;;99.32;44.67;;;;;;;10.04;100.00;102078.75;4987006;28;20075;-73
2022/12/31 09:23:57;;;;;;;87.32;41.30;;;;;;;10.05;100.00;102072.63;4987411;28;20438;-74
2022/12/31 09:26:40;;;;;;;91.47;42.88;;;;;;;10.07;100.00;102070.75;4987249;28;20124;-74
2022/12/31 09:29:25;;;;;;;92.32;42.33;;;;;;;10.11;100.00;102064.41;4989242;28;20038;-74
2022/12/31 09:32:22;;;;;;;95.85;42.05;;;;;;;10.19;100.00;102063.88;4988087;28;20529;-74
2022/12/31 09:34:58;;;;;;;97.70;43.47;;;;;;;10.30;100.00;102058.81;4988084;28;20030;-74
2022/12/31 09:37:52;;;;;;;127.63;56.47;;;;;;;10.41;100.00;102065.88;4987943;28;20081;-75
2022/12/31 09:40:52;;;;;;;107.05;46.58;;;;;;;10.41;100.00;102063.28;4995296;28;20160;-74
2022/12/31 09:43:30;;;;;;;88.32;39.10;;;;;;;10.30;100.00;102051.84;4976001;28;20049;-75
2022/12/31 09:46:33;;;;;;;92.07;39.30;;;;;;;10.36;100.00;102055.81;4987794;28;20061;-74
2022/12/31 09:48:58;;;;;;;89.72;39.00;;;;;;;10.44;100.00;102055.25;4980971;28;20089;-75
2022/12/31 09:51:56;;;;;;;89.80;38.50;;;;;;;10.34;100.00;102054.25;4993650;28;20034;-75
2022/12/31 09:54:21;;;;;;;79.50;38.20;;;;;;;10.46;100.00;102067.25;4987216;28;20614;-74
2022/12/31 09:56:50;;;;;;;89.65;38.97;;;;;;;10.61;100.00;102068.81;5007503;28;20117;-74
2022/12/31 09:59:24;;;;;;;230.70;44.78;;;;;;;10.65;100.00;102077.25;5008276;28;20086;-75
2022/12/31 10:01:49;;;;;;;104.32;41.88;;;;;;;10.72;100.00;102072.44;5009805;28;20049;-75
2022/12/31 10:04:54;;;;;;;88.07;42.10;;;;;;;10.76;100.00;102079.13;5008463;28;20037;-75
2022/12/31 10:07:37;;;;;;;94.90;38.40;;;;;;;10.74;100.00;102081.00;5010233;28;20132;-74
2022/12/31 10:10:11;;;;;;;96.35;38.45;;;;;;;10.71;100.00;102086.41;5009707;28;20131;-74
2022/12/31 10:12:58;;;;;;;92.40;40.70;;;;;;;10.65;100.00;102077.25;5009126;28;20977;-75
2022/12/31 10:16:00;;;;;;;108.72;43.75;;;;;;;10.67;100.00;102084.97;5015875;28;20034;-75
2022/12/31 10:18:53;;;;;;;94.28;41.85;;;;;;;10.57;100.00;102084.75;5010996;28;20096;-74
2022/12/31 10:21:37;;;;;;;99.30;42.78;;;;;;;10.56;100.00;102083.09;5011404;28;20385;-75
2022/12/31 10:24:20;;;;;;;92.43;41.80;;;;;;;10.54;100.00;102091.00;5007582;28;20033;-75
2022/12/31 10:26:49;;;;;;;105.57;42.50;;;;;;;10.50;100.00;102088.72;5012929;28;20061;-75
2022/12/31 10:29:55;;;;;;;93.85;41.95;;;;;;;10.42;100.00;102083.19;5012949;28;20095;-76
2022/12/31 10:32:44;;;;;;;99.63;44.35;;;;;;;10.37;100.00;102088.75;5017327;28;20091;-75
2022/12/31 10:35:46;;;;;;;95.65;42.80;;;;;;;10.41;100.00;102091.94;5012676;28;20030;-75
2022/12/31 10:38:32;;;;;;;105.47;45.50;;;;;;;10.38;100.00;102097.38;5012410;28;20038;-75
2022/12/31 10:41:00;;;;;;;;;;;;;;;10.30;100.00;102093.53;5020868;28;20136;-74
2022/12/31 10:43:53;;;;;;;87.38;37.60;;;;;;;10.38;100.00;102090.41;5017756;28;20653;-75
2022/12/31 10:46:28;;;;;;;101.78;41.28;;;;;;;10.40;100.00;102093.72;5010706;28;20034;-75
2022/12/31 10:49:30;;;;;;;98.65;42.25;;;;;;;10.38;100.00;102098.22;5013131;28;20021;-75
2022/12/31 10:52:10;;;;;;;96.75;40.13;;;;;;;10.40;100.00;102104.13;5003878;28;20108;-74
2022/12/31 10:54:54;;;;;;;94.05;38.35;;;;;;;10.39;100.00;102102.50;5016267;28;20128;-74
2022/12/31 10:57:56;;;;;;;93.57;38.45;;;;;;;10.40;100.00;102109.34;5011662;28;20041;-74
2022/12/31 11:00:26;;;;;;;89.45;39.22;;;;;;;10.44;100.00;102099.56;5011607;28;20049;-74
2022/12/31 11:03:20;;;;;;;90.30;38.63;;;;;;;10.42;100.00;102106.63;5012238;28;20065;-75
2022/12/31 11:06:04;;;;;;;88.47;37.35;;;;;;;10.44;100.00;102100.38;5004509;28;20080;-74
2022/12/31 11:09:06;;;;;;;85.55;38.10;;;;;;;10.43;100.00;102085.69;5015029;28;20385;-74
2022/12/31 11:12:09;;;;;;;82.57;36.97;;;;;;;10.42;100.00;102091.00;5011241;28;20802;-74
2022/12/31 11:14:52;;;;;;;82.93;35.67;;;;;;;10.48;100.00;102093.19;5010434;28;20508;-74
2022/12/31 11:17:32;;;;;;;77.00;34.03;;;;;;;10.46;100.00;102095.91;5011287;28;20034;-74
2022/12/31 11:20:22;;;;;;;79.45;35.03;;;;;;;10.47;100.00;102099.34;5011874;28;20034;-74
2022/12/31 11:23:08;;;;;;;77.70;35.25;;;;;;;10.43;100.00;102095.28;5019272;28;20432;-74
2022/12/31 11:26:03;;;;;;;72.50;34.10;;;;;;;10.44;100.00;102097.78;5013730;28;20493;-74
2022/12/31 11:28:56;;;;;;;69.93;33.47;;;;;;;10.45;100.00;102096.00;5006746;28;20371;-74
2022/12/31 11:31:21;;;;;;;76.43;34.42;;;;;;;10.50;100.00;102099.13;5013967;28;20033;-75
2022/12/31 11:34:09;;;;;;;71.93;33.85;;;;;;;10.44;100.00;102094.34;5011778;28;20063;-74
2022/12/31 11:36:53;;;;;;;73.05;35.17;;;;;;;10.45;100.00;102082.97;5010236;28;20041;-74
2022/12/31 11:39:32;;;;;;;76.82;36.03;;;;;;;10.44;100.00;102083.91;5007710;28;20100;-73
2022/12/31 11:42:17;;;;;;;75.68;34.97;;;;;;;10.38;100.00;102082.59;5012821;28;20457;-74
2022/12/31 11:45:07;;;;;;;75.20;34.38;;;;;;;10.39;100.00;102088.63;5011626;28;20033;-74